createdAt,value
2022-11-25T00:01:32.530Z,14.13
2022-11-25T00:04:01.072Z,31.35
2022-11-25T00:06:33.064Z,18.20
2022-11-25T00:09:08.531Z,22.98
2022-11-25T00:11:37.841Z,21.13
2022-11-25T00:14:06.463Z,21.73
2022-11-25T00:16:34.386Z,21.52
2022-11-25T00:19:01.965Z,26.73
2022-11-25T00:21:33.431Z,25.83
2022-11-25T00:24:03.941Z,25.33
2022-11-25T00:26:33.505Z,19.08
2022-11-25T00:29:03.797Z,22.70
2022-11-25T00:31:35.847Z,19.60
2022-11-25T00:34:03.903Z,16.95
2022-11-25T00:36:35.190Z,19.85
2022-11-25T00:39:14.780Z,18.08
2022-11-25T00:42:02.615Z,19.77
2022-11-25T00:44:37.226Z,22.25
2022-11-25T00:47:07.331Z,22.23
2022-11-25T00:49:35.196Z,15.73
2022-11-25T00:52:03.409Z,14.43
2022-11-25T00:54:31.413Z,17.52
2022-11-25T00:56:59.373Z,19.27
2022-11-25T00:59:26.893Z,17.55
2022-11-25T01:01:54.656Z,22.70
2022-11-25T01:04:22.091Z,22.88
2022-11-25T01:09:16.856Z,19.08
2022-11-25T01:11:44.782Z,21.50
2022-11-25T01:14:12.444Z,23.00
2022-11-25T01:16:39.928Z,23.02
2022-11-25T01:19:08.382Z,19.60
2022-11-25T01:21:36.018Z,26.70
2022-11-25T01:24:04.936Z,19.17
2022-11-25T01:26:35.720Z,16.23
2022-11-25T01:29:06.168Z,16.23
2022-11-25T01:31:36.957Z,15.57
2022-11-25T01:34:12.682Z,21.52
2022-11-25T01:36:40.730Z,27.90
2022-11-25T01:39:08.594Z,20.10
2022-11-25T01:41:36.265Z,13.35
2022-11-25T01:44:07.875Z,24.08
2022-11-25T01:46:50.786Z,15.48
2022-11-25T01:49:24.292Z,18.45
2022-11-25T01:51:55.677Z,19.55
2022-11-25T01:54:26.201Z,11.93
2022-11-25T01:57:06.589Z,15.95
2022-11-25T01:59:40.571Z,15.18
2022-11-25T02:02:09.896Z,13.43
2022-11-25T02:04:39.489Z,20.55
2022-11-25T02:07:26.447Z,15.23
2022-11-25T02:12:22.730Z,14.85
2022-11-25T02:14:52.099Z,13.38
2022-11-25T02:17:20.025Z,22.77
2022-11-25T02:20:03.350Z,20.90
2022-11-25T02:22:59.288Z,18.38
2022-11-25T02:25:33.685Z,17.23
2022-11-25T02:28:17.843Z,12.15
2022-11-25T02:30:46.037Z,15.80
2022-11-25T02:33:15.423Z,18.85
2022-11-25T02:35:47.971Z,17.75
2022-11-25T02:38:33.738Z,19.08
2022-11-25T02:41:07.944Z,22.92
2022-11-25T02:43:35.613Z,21.30
2022-11-25T02:46:20.353Z,13.07
2022-11-25T02:49:08.425Z,17.17
2022-11-25T02:51:39.596Z,22.48
2022-11-25T02:54:09.937Z,19.73
2022-11-25T02:56:38.775Z,20.35
2022-11-25T02:59:07.423Z,14.25
2022-11-25T03:01:36.590Z,15.35
2022-11-25T03:04:06.919Z,21.00
2022-11-25T03:06:34.835Z,16.48
2022-11-25T03:09:02.223Z,18.58
2022-11-25T03:11:49.626Z,12.35
2022-11-25T03:14:17.314Z,21.33
2022-11-25T03:16:44.897Z,15.02
2022-11-25T03:19:12.618Z,12.73
2022-11-25T03:24:08.088Z,8.80
2022-11-25T03:26:35.485Z,15.88
2022-11-25T03:31:30.383Z,19.75
2022-11-25T03:33:58.027Z,13.50
2022-11-25T03:36:25.515Z,15.00
2022-11-25T03:38:53.005Z,12.05
2022-11-25T03:43:49.075Z,16.95
2022-11-25T03:46:16.587Z,16.08
2022-11-25T03:48:44.634Z,11.73
2022-11-25T03:51:12.280Z,13.15
2022-11-25T03:53:39.925Z,13.68
2022-11-25T03:56:09.916Z,16.27
2022-11-25T03:58:37.510Z,11.43
2022-11-25T04:01:06.775Z,17.98
2022-11-25T04:03:34.424Z,17.60
2022-11-25T04:08:30.573Z,18.25
2022-11-25T04:10:58.937Z,10.25
2022-11-25T04:13:30.154Z,15.30
2022-11-25T04:15:58.173Z,15.02
2022-11-25T04:18:26.397Z,13.88
2022-11-25T04:20:56.732Z,14.38
2022-11-25T04:23:24.577Z,13.00
2022-11-25T04:25:58.174Z,17.00
2022-11-25T04:28:35.531Z,14.85
2022-11-25T04:31:07.052Z,12.48
2022-11-25T04:33:37.923Z,10.50
2022-11-25T04:36:05.910Z,11.40
2022-11-25T04:38:33.519Z,15.98
2022-11-25T04:41:01.726Z,12.07
2022-11-25T04:43:33.096Z,11.32
2022-11-25T04:46:14.020Z,15.48
2022-11-25T04:48:45.312Z,10.10
2022-11-25T04:51:14.751Z,12.27
2022-11-25T04:53:44.047Z,9.30
2022-11-25T04:56:18.377Z,14.90
2022-11-25T04:59:05.365Z,15.50
2022-11-25T05:01:34.290Z,11.10
2022-11-25T05:04:11.177Z,10.50
2022-11-25T05:06:39.197Z,11.82
2022-11-25T05:09:08.168Z,16.10
2022-11-25T05:11:38.190Z,5.03
2022-11-25T05:14:06.101Z,10.63
2022-11-25T05:16:34.060Z,14.50
2022-11-25T05:19:01.787Z,10.45
2022-11-25T05:26:26.857Z,14.68
2022-11-25T05:28:57.704Z,12.55
2022-11-25T05:31:25.260Z,10.82
2022-11-25T05:33:53.952Z,15.38
2022-11-25T05:36:22.267Z,13.85
2022-11-25T05:38:50.475Z,14.68
2022-11-25T05:41:26.772Z,11.68
2022-11-25T05:43:54.840Z,13.52
2022-11-25T05:46:23.257Z,12.13
2022-11-25T05:48:56.142Z,16.52
2022-11-25T05:51:25.447Z,11.65
2022-11-25T05:53:55.355Z,10.82
2022-11-25T05:56:26.540Z,12.82
2022-11-25T05:59:22.840Z,12.40
2022-11-25T06:02:03.627Z,10.65
2022-11-25T06:04:31.924Z,21.27
2022-11-25T06:09:26.722Z,13.32
2022-11-25T06:14:21.552Z,9.60
2022-11-25T06:16:50.487Z,15.05
2022-11-25T06:19:29.590Z,14.63
2022-11-25T06:21:57.264Z,15.80
2022-11-25T06:24:26.024Z,12.32
2022-11-25T06:27:00.645Z,17.50
2022-11-25T06:29:28.245Z,9.98
2022-11-25T06:31:55.806Z,17.88
2022-11-25T06:34:52.402Z,7.53
2022-11-25T06:37:49.172Z,8.48
2022-11-25T06:42:43.977Z,13.27
2022-11-25T06:45:11.638Z,13.10
2022-11-25T06:47:39.053Z,17.45
2022-11-25T06:52:34.584Z,12.80
2022-11-25T06:55:02.739Z,13.73
2022-11-25T06:57:30.269Z,13.10
2022-11-25T07:04:52.316Z,11.98
2022-11-25T07:09:47.679Z,16.45
2022-11-25T07:12:15.056Z,8.60
2022-11-25T07:17:12.131Z,11.48
2022-11-25T07:19:40.510Z,9.50
2022-11-25T07:22:07.957Z,11.65
2022-11-25T07:27:05.939Z,7.70
2022-11-25T07:29:54.507Z,12.23
2022-11-25T07:32:22.966Z,9.60
2022-11-25T07:37:19.527Z,15.07
2022-11-25T07:39:47.122Z,15.80
2022-11-25T07:42:14.813Z,9.73
2022-11-25T07:44:42.282Z,14.70
2022-11-25T07:47:29.129Z,10.32
2022-11-25T07:49:57.596Z,13.85
2022-11-25T07:52:25.160Z,15.90
2022-11-25T07:54:53.544Z,11.98
2022-11-25T07:57:20.970Z,16.52
2022-11-25T08:04:43.101Z,14.40
2022-11-25T08:07:23.134Z,27.40
2022-11-25T08:09:57.753Z,21.60
2022-11-25T08:12:41.139Z,22.48
2022-11-25T08:15:08.967Z,16.58
2022-11-25T08:17:36.450Z,14.80
2022-11-25T08:20:04.327Z,18.05
2022-11-25T08:22:31.722Z,16.73
2022-11-25T08:27:29.897Z,19.63
2022-11-25T08:32:24.717Z,19.98
2022-11-25T08:34:52.170Z,12.73
2022-11-25T08:37:19.778Z,19.65
2022-11-25T08:42:21.319Z,13.82
2022-11-25T08:44:56.103Z,20.98
2022-11-25T08:47:23.922Z,17.35
2022-11-25T08:49:55.423Z,18.05
2022-11-25T08:52:23.601Z,13.55
2022-11-25T08:54:51.134Z,17.40
2022-11-25T08:57:18.710Z,16.45
2022-11-25T08:59:46.428Z,16.92
2022-11-25T09:02:16.788Z,18.67
2022-11-25T09:04:44.528Z,14.40
2022-11-25T09:07:12.143Z,16.48
2022-11-25T09:09:39.992Z,22.45
2022-11-25T09:12:07.790Z,15.27
2022-11-25T09:14:35.824Z,14.13
2022-11-25T09:17:07.893Z,18.65
2022-11-25T09:19:35.891Z,14.63
2022-11-25T09:22:03.750Z,16.67
2022-11-25T09:24:31.198Z,17.58
2022-11-25T09:26:58.630Z,13.68
2022-11-25T09:29:27.883Z,14.43
2022-11-25T09:31:55.404Z,16.38
2022-11-25T09:34:23.139Z,14.88
2022-11-25T09:36:50.666Z,21.23
2022-11-25T09:39:18.188Z,17.85
2022-11-25T09:42:14.468Z,18.20
2022-11-25T09:45:15.493Z,17.83
2022-11-25T09:48:22.082Z,22.60
2022-11-25T09:53:47.041Z,17.48
2022-11-25T09:56:38.457Z,13.32
2022-11-25T09:59:17.353Z,16.48
2022-11-25T10:01:56.296Z,19.30
2022-11-25T10:04:30.636Z,20.20
2022-11-25T10:07:01.902Z,14.90
2022-11-25T10:09:34.806Z,18.25
2022-11-25T10:12:34.125Z,18.08
2022-11-25T10:15:16.092Z,19.42
2022-11-25T10:17:53.413Z,15.25
2022-11-25T10:20:26.587Z,18.08
2022-11-25T10:22:58.183Z,16.42
2022-11-25T10:25:30.465Z,18.17
2022-11-25T10:28:01.848Z,16.00
2022-11-25T10:30:50.169Z,13.70
2022-11-25T10:33:25.416Z,19.23
2022-11-25T10:36:00.650Z,16.73
2022-11-25T10:38:36.469Z,14.52
2022-11-25T10:41:05.241Z,16.65
2022-11-25T10:43:33.793Z,14.63
2022-11-25T10:46:23.190Z,15.77
2022-11-25T10:48:56.614Z,14.90
2022-11-25T10:51:38.758Z,13.88
2022-11-25T10:54:14.115Z,17.73
2022-11-25T10:56:52.362Z,17.42
2022-11-25T10:59:37.917Z,15.40
2022-11-25T11:02:28.462Z,17.98
2022-11-25T11:05:08.450Z,13.50
2022-11-25T11:07:44.748Z,15.88
2022-11-25T11:10:15.525Z,20.63
2022-11-25T11:13:04.952Z,15.07
2022-11-25T11:15:41.586Z,10.25
2022-11-25T11:18:40.315Z,13.43
2022-11-25T11:21:31.692Z,12.25
2022-11-25T11:24:00.446Z,15.88
2022-11-25T11:26:33.810Z,12.10
2022-11-25T11:29:14.529Z,16.95
2022-11-25T11:31:56.424Z,11.05
2022-11-25T11:34:33.015Z,15.10
2022-11-25T11:37:03.380Z,12.75
2022-11-25T11:40:00.304Z,16.55
2022-11-25T11:42:54.197Z,10.07
2022-11-25T11:45:34.508Z,17.80
2022-11-25T11:48:37.000Z,15.05
2022-11-25T11:51:34.029Z,13.82
2022-11-25T11:54:18.745Z,13.95
2022-11-25T11:57:21.714Z,15.60
2022-11-25T12:00:06.022Z,16.40
2022-11-25T12:02:51.245Z,12.95
2022-11-25T12:05:27.494Z,14.10
2022-11-25T12:08:06.667Z,14.20
2022-11-25T12:10:40.764Z,12.13
2022-11-25T12:13:20.287Z,12.02
2022-11-25T12:16:17.272Z,17.38
2022-11-25T12:18:50.875Z,11.80
2022-11-25T12:21:41.569Z,14.15
2022-11-25T12:24:25.818Z,16.48
2022-11-25T12:27:09.608Z,13.73
2022-11-25T12:29:48.010Z,15.20
2022-11-25T12:32:30.857Z,16.83
2022-11-25T12:35:16.552Z,16.20
2022-11-25T12:38:05.804Z,15.48
2022-11-25T12:40:48.432Z,13.48
2022-11-25T12:43:34.534Z,14.63
2022-11-25T12:46:39.437Z,17.05
2022-11-25T12:49:14.093Z,13.43
2022-11-25T12:52:01.345Z,17.60
2022-11-25T12:54:59.554Z,18.38
2022-11-25T12:57:47.413Z,13.10
2022-11-25T13:00:42.473Z,15.75
2022-11-25T13:03:24.984Z,12.27
2022-11-25T13:06:18.379Z,18.48
2022-11-25T13:09:09.273Z,18.85
2022-11-25T13:12:08.481Z,16.17
2022-11-25T13:14:56.805Z,13.13
2022-11-25T13:17:26.135Z,18.13
2022-11-25T13:20:27.825Z,16.48
2022-11-25T13:23:18.893Z,17.35
2022-11-25T13:25:48.314Z,16.98
2022-11-25T13:28:35.607Z,11.85
2022-11-25T13:31:14.337Z,9.98
2022-11-25T13:33:44.965Z,12.70
2022-11-25T13:36:21.142Z,13.93
2022-11-25T13:38:51.579Z,16.17
2022-11-25T13:41:22.294Z,10.43
2022-11-25T13:44:01.700Z,13.02
2022-11-25T13:46:43.703Z,16.15
2022-11-25T13:49:51.418Z,19.13
2022-11-25T13:52:31.355Z,12.52
2022-11-25T13:55:00.439Z,18.98
2022-11-25T13:57:34.862Z,17.20
2022-11-25T14:00:10.178Z,13.38
2022-11-25T14:02:45.385Z,9.27
2022-11-25T14:05:34.302Z,13.43
2022-11-25T14:08:21.614Z,10.43
2022-11-25T14:11:07.838Z,14.80
2022-11-25T14:13:57.164Z,12.90
2022-11-25T14:16:37.336Z,11.90
2022-11-25T14:19:51.295Z,8.02
2022-11-25T14:22:25.617Z,13.63
2022-11-25T14:24:59.980Z,11.73
2022-11-25T14:27:30.828Z,16.25
2022-11-25T14:30:04.084Z,20.00
2022-11-25T14:33:01.201Z,13.02
2022-11-25T14:35:43.537Z,13.75
2022-11-25T14:38:38.359Z,12.63
2022-11-25T14:41:15.254Z,14.13
2022-11-25T14:43:48.855Z,16.48
2022-11-25T14:46:21.059Z,16.73
2022-11-25T14:49:00.133Z,15.35
2022-11-25T14:51:37.909Z,14.75
2022-11-25T14:54:09.885Z,13.55
2022-11-25T14:56:39.073Z,12.88
2022-11-25T14:59:10.358Z,17.73
2022-11-25T15:01:40.051Z,18.55
2022-11-25T15:04:22.124Z,18.20
2022-11-25T15:06:57.073Z,15.60
2022-11-25T15:09:30.300Z,14.52
2022-11-25T15:12:01.615Z,12.43
2022-11-25T15:14:35.263Z,16.10
2022-11-25T15:17:10.064Z,11.77
2022-11-25T15:19:37.944Z,11.15
2022-11-25T15:22:22.372Z,13.23
2022-11-25T15:24:55.401Z,11.45
2022-11-25T15:27:26.801Z,14.52
2022-11-25T15:29:56.679Z,16.45
2022-11-25T15:32:30.211Z,13.52
2022-11-25T15:35:00.680Z,13.80
2022-11-25T15:37:28.877Z,9.35
2022-11-25T15:40:31.845Z,15.20
2022-11-25T15:43:02.450Z,15.88
2022-11-25T15:45:52.810Z,12.38
2022-11-25T15:48:29.392Z,16.02
2022-11-25T15:51:06.750Z,14.10
2022-11-25T15:53:37.858Z,12.77
2022-11-25T15:56:07.610Z,14.48
2022-11-25T15:58:35.330Z,13.80
2022-11-25T16:01:19.476Z,16.00
2022-11-25T16:03:48.431Z,10.10
2022-11-25T16:06:33.676Z,13.50
2022-11-25T16:09:03.929Z,15.52
2022-11-25T16:11:45.061Z,12.60
2022-11-25T16:14:25.947Z,14.45
2022-11-25T16:17:02.442Z,12.00
2022-11-25T16:19:37.772Z,17.70
2022-11-25T16:22:09.511Z,7.95
2022-11-25T16:24:42.239Z,17.15
2022-11-25T16:27:28.150Z,11.15
2022-11-25T16:30:17.587Z,11.93
2022-11-25T16:32:45.691Z,9.50
2022-11-25T16:35:16.184Z,13.02
2022-11-25T16:37:48.743Z,12.40
2022-11-25T16:40:19.511Z,17.33
2022-11-25T16:42:49.076Z,14.32
2022-11-25T16:45:24.722Z,13.73
2022-11-25T16:47:52.582Z,14.65
2022-11-25T16:50:21.125Z,18.33
2022-11-25T16:52:59.344Z,10.13
2022-11-25T16:55:36.278Z,12.32
2022-11-25T16:58:31.003Z,15.95
2022-11-25T17:00:58.664Z,10.07
2022-11-25T17:03:26.851Z,12.32
2022-11-25T17:05:55.361Z,18.05
2022-11-25T17:08:22.768Z,13.10
2022-11-25T17:10:59.878Z,26.10
2022-11-25T17:13:27.606Z,31.25
2022-11-25T17:15:55.280Z,37.25
2022-11-25T17:18:30.975Z,33.83
2022-11-25T17:20:58.538Z,46.78
2022-11-25T17:23:26.658Z,50.08
2022-11-25T17:25:55.845Z,40.30
2022-11-25T17:28:23.401Z,35.47
2022-11-25T17:30:51.065Z,27.80
2022-11-25T17:33:20.265Z,32.78
2022-11-25T17:35:47.716Z,21.50
2022-11-25T17:40:47.656Z,20.20
2022-11-25T17:43:17.080Z,17.55
2022-11-25T17:45:46.223Z,21.52
2022-11-25T17:48:17.907Z,20.45
2022-11-25T17:50:46.945Z,23.77
2022-11-25T17:53:14.310Z,20.75
2022-11-25T17:58:10.771Z,19.35
2022-11-25T18:00:42.026Z,22.15
2022-11-25T18:03:12.850Z,22.10
2022-11-25T18:05:40.473Z,22.08
2022-11-25T18:08:08.608Z,24.17
2022-11-25T18:10:36.266Z,19.83
2022-11-25T18:13:05.704Z,20.77
2022-11-25T18:15:34.797Z,25.77
2022-11-25T18:18:05.341Z,19.98
2022-11-25T18:20:33.668Z,19.50
2022-11-25T18:23:01.327Z,21.17
2022-11-25T18:25:31.546Z,19.67
2022-11-25T18:28:00.789Z,19.90
2022-11-25T18:30:35.885Z,22.90
2022-11-25T18:33:06.294Z,18.63
2022-11-25T18:35:36.735Z,20.52
2022-11-25T18:38:04.955Z,13.95
2022-11-25T18:40:33.880Z,19.48
2022-11-25T18:43:03.659Z,17.45
2022-11-25T18:45:35.158Z,18.50
2022-11-25T18:48:13.357Z,21.77
2022-11-25T18:50:42.356Z,20.95
2022-11-25T18:53:10.134Z,21.48
2022-11-25T18:55:38.450Z,21.10
2022-11-25T18:58:16.743Z,21.98
2022-11-25T19:00:48.582Z,23.20
2022-11-25T19:03:20.067Z,21.52
2022-11-25T19:05:48.049Z,22.10
2022-11-25T19:08:15.644Z,25.02
2022-11-25T19:10:44.784Z,19.83
2022-11-25T19:13:19.541Z,22.52
2022-11-25T19:15:47.549Z,26.45
2022-11-25T19:18:24.984Z,22.38
2022-11-25T19:20:52.554Z,23.10
2022-11-25T19:23:25.443Z,22.08
2022-11-25T19:26:03.159Z,22.70
2022-11-25T19:28:31.537Z,21.13
2022-11-25T19:31:04.658Z,21.08
2022-11-25T19:33:35.853Z,20.95
2022-11-25T19:36:04.095Z,20.73
2022-11-25T19:38:32.977Z,20.25
2022-11-25T19:41:00.814Z,19.35
2022-11-25T19:43:28.260Z,19.00
2022-11-25T19:45:57.553Z,18.67
2022-11-25T19:48:28.415Z,16.92
2022-11-25T19:51:04.764Z,17.65
2022-11-25T19:53:34.356Z,23.23
2022-11-25T19:56:04.786Z,12.32
2022-11-25T19:58:32.409Z,16.10
2022-11-25T20:03:31.461Z,15.05
2022-11-25T20:05:59.138Z,15.00
2022-11-25T20:08:28.873Z,14.05
2022-11-25T20:10:56.868Z,16.63
2022-11-25T20:13:26.222Z,21.17
2022-11-25T20:15:56.014Z,17.52
2022-11-25T20:18:25.540Z,15.05
2022-11-25T20:21:03.508Z,19.02
2022-11-25T20:23:43.257Z,17.52
2022-11-25T20:26:27.025Z,15.88
2022-11-25T20:28:54.497Z,20.25
2022-11-25T20:33:50.412Z,23.85
2022-11-25T20:36:22.265Z,20.77
2022-11-25T20:38:53.038Z,24.48
2022-11-25T20:41:27.439Z,27.75
2022-11-25T20:43:56.504Z,29.60
2022-11-25T20:46:29.240Z,29.52
2022-11-25T20:49:00.534Z,25.25
2022-11-25T20:51:28.321Z,23.83
2022-11-25T20:53:57.478Z,25.17
2022-11-25T20:56:26.520Z,28.17
2022-11-25T20:58:54.335Z,25.08
2022-11-25T21:01:21.944Z,26.40
2022-11-25T21:03:50.421Z,24.25
2022-11-25T21:06:29.993Z,30.52
2022-11-25T21:08:59.816Z,28.05
2022-11-25T21:11:28.174Z,34.50
2022-11-25T21:13:55.678Z,29.85
2022-11-25T21:18:50.534Z,27.90
2022-11-25T21:23:52.260Z,29.58
2022-11-25T21:28:53.283Z,34.55
2022-11-25T21:31:25.858Z,29.85
2022-11-25T21:33:57.886Z,28.90
2022-11-25T21:36:30.873Z,28.98
2022-11-25T21:39:08.106Z,24.50
2022-11-25T21:44:06.132Z,25.30
2022-11-25T21:46:33.896Z,27.65
2022-11-25T21:49:01.763Z,26.67
2022-11-25T21:51:29.296Z,35.13
2022-11-25T21:56:31.017Z,33.00
2022-11-25T21:59:00.400Z,31.92
2022-11-25T22:01:27.881Z,38.42
2022-11-25T22:03:55.347Z,50.88
2022-11-25T22:08:51.971Z,39.53
2022-11-25T22:11:35.755Z,43.88
2022-11-25T22:14:06.626Z,35.63
2022-11-25T22:16:36.719Z,31.00
2022-11-25T22:19:04.484Z,38.78
2022-11-25T22:21:32.162Z,29.92
2022-11-25T22:23:59.615Z,24.88
2022-11-25T22:26:33.317Z,29.92
2022-11-25T22:29:01.734Z,30.85
2022-11-25T22:31:29.654Z,25.63
2022-11-25T22:33:57.345Z,33.28
2022-11-25T22:36:32.119Z,27.80
2022-11-25T22:39:12.327Z,28.02
2022-11-25T22:41:41.103Z,29.58
2022-11-25T22:44:16.826Z,24.50
2022-11-25T22:46:44.879Z,26.85
2022-11-25T22:49:46.408Z,24.10
2022-11-25T22:52:25.215Z,29.67
2022-11-25T22:54:52.765Z,26.98
2022-11-25T22:59:47.538Z,25.42
2022-11-25T23:04:49.655Z,21.55
2022-11-25T23:07:17.819Z,22.45
2022-11-25T23:09:45.469Z,21.58
2022-11-25T23:12:14.548Z,24.08
2022-11-25T23:14:43.499Z,26.77
2022-11-25T23:17:23.625Z,20.83
2022-11-25T23:19:52.003Z,20.98
2022-11-25T23:22:20.264Z,19.38
2022-11-25T23:24:49.069Z,21.15
2022-11-25T23:27:16.910Z,22.92
2022-11-25T23:29:45.240Z,22.00
2022-11-25T23:32:18.835Z,19.55
2022-11-25T23:34:49.780Z,23.67
2022-11-25T23:37:17.635Z,18.23
2022-11-25T23:39:51.654Z,24.42
2022-11-25T23:42:20.338Z,21.77
2022-11-25T23:44:47.801Z,19.38
2022-11-25T23:47:22.223Z,19.55
2022-11-25T23:49:52.584Z,20.65
2022-11-25T23:52:26.786Z,15.98
2022-11-25T23:54:55.132Z,22.10
2022-11-25T23:57:31.937Z,19.23
2022-11-25T23:59:59.459Z,25.83
